createdAt,value
2023-04-10T00:01:00.761Z,66.55
2023-04-10T00:04:03.537Z,66.17
2023-04-10T00:07:05.785Z,66.14
2023-04-10T00:10:08.082Z,66.05
2023-04-10T00:13:10.025Z,65.68
2023-04-10T00:16:12.009Z,65.73
2023-04-10T00:19:13.890Z,65.58
2023-04-10T00:22:16.066Z,65.41
2023-04-10T00:25:18.091Z,65.57
2023-04-10T00:28:19.960Z,65.79
2023-04-10T00:31:21.954Z,65.49
2023-04-10T00:34:24.930Z,65.60
2023-04-10T00:37:27.568Z,65.30
2023-04-10T00:40:30.422Z,65.37
2023-04-10T00:43:32.622Z,64.85
2023-04-10T00:46:37.332Z,64.54
2023-04-10T00:49:39.268Z,64.63
2023-04-10T00:52:41.220Z,64.23
2023-04-10T00:55:43.961Z,64.19
2023-04-10T00:58:45.969Z,63.88
2023-04-10T01:01:47.929Z,63.69
2023-04-10T01:04:50.090Z,63.53
2023-04-10T01:08:18.640Z,63.24
2023-04-10T01:11:36.191Z,63.42
2023-04-10T01:14:58.807Z,63.53
2023-04-10T01:18:08.292Z,63.35
2023-04-10T01:21:14.880Z,63.48
2023-04-10T01:24:47.548Z,63.84
2023-04-10T01:28:16.431Z,63.52
2023-04-10T01:31:26.515Z,63.94
2023-04-10T01:34:41.178Z,63.49
2023-04-10T01:37:46.682Z,63.75
2023-04-10T01:40:52.682Z,63.53
2023-04-10T01:44:04.646Z,63.54
2023-04-10T01:47:07.813Z,63.25
2023-04-10T01:50:12.125Z,63.54
2023-04-10T01:53:14.874Z,63.47
2023-04-10T01:56:17.516Z,63.59
2023-04-10T01:59:22.182Z,63.71
2023-04-10T02:02:24.331Z,64.15
2023-04-10T02:05:32.865Z,64.48
2023-04-10T02:08:37.174Z,64.40
2023-04-10T02:11:52.013Z,64.08
2023-04-10T02:14:57.647Z,63.85
2023-04-10T02:18:04.917Z,63.88
2023-04-10T02:21:07.547Z,63.86
2023-04-10T02:24:09.569Z,63.59
2023-04-10T02:27:11.561Z,63.81
2023-04-10T02:30:13.448Z,63.51
2023-04-10T02:33:17.122Z,63.68
2023-04-10T02:36:19.135Z,64.05
2023-04-10T02:39:21.164Z,64.28
2023-04-10T02:42:26.277Z,64.63
2023-04-10T02:45:33.428Z,64.43
2023-04-10T02:48:35.330Z,64.00
2023-04-10T02:51:38.226Z,64.67
2023-04-10T02:54:40.759Z,63.85
2023-04-10T02:57:42.971Z,63.93
2023-04-10T03:00:49.454Z,63.96
2023-04-10T03:04:11.343Z,63.96
2023-04-10T03:07:17.172Z,64.18
2023-04-10T03:10:19.115Z,64.29
2023-04-10T03:13:23.580Z,64.56
2023-04-10T03:16:25.690Z,64.77
2023-04-10T03:19:28.168Z,64.86
2023-04-10T03:22:32.311Z,64.87
2023-04-10T03:25:35.563Z,65.22
2023-04-10T03:28:39.848Z,65.54
2023-04-10T03:31:44.635Z,65.71
2023-04-10T03:34:46.580Z,65.56
2023-04-10T03:37:49.502Z,65.39
2023-04-10T03:40:51.386Z,65.84
2023-04-10T03:43:55.673Z,65.25
2023-04-10T03:46:58.869Z,65.07
2023-04-10T03:50:01.172Z,64.50
2023-04-10T03:53:10.027Z,64.00
2023-04-10T03:56:12.844Z,63.41
2023-04-10T03:59:14.766Z,63.09
2023-04-10T04:02:16.776Z,62.14
2023-04-10T04:05:20.193Z,61.58
2023-04-10T04:08:42.080Z,60.85
2023-04-10T04:11:46.638Z,60.51
2023-04-10T04:15:08.218Z,60.10
2023-04-10T04:18:26.403Z,59.54
2023-04-10T04:21:44.606Z,59.01
2023-04-10T04:25:08.974Z,58.41
2023-04-10T04:28:43.312Z,57.38
2023-04-10T04:32:04.124Z,57.25
2023-04-10T04:35:24.799Z,56.49
2023-04-10T04:38:43.723Z,55.99
2023-04-10T04:42:04.338Z,55.10
2023-04-10T04:45:26.603Z,55.19
2023-04-10T04:48:51.906Z,54.38
2023-04-10T04:51:59.579Z,54.13
2023-04-10T04:55:12.327Z,53.64
2023-04-10T04:58:42.074Z,53.37
2023-04-10T05:01:48.487Z,53.14
2023-04-10T05:05:28.633Z,52.47
2023-04-10T05:08:50.740Z,51.78
2023-04-10T05:12:15.944Z,50.29
2023-04-10T05:15:35.611Z,50.82
2023-04-10T05:18:47.445Z,49.89
2023-04-10T05:22:16.906Z,50.01
2023-04-10T05:25:46.588Z,49.61
2023-04-10T05:29:11.492Z,48.58
2023-04-10T05:32:19.162Z,49.09
2023-04-10T05:35:37.817Z,48.25
2023-04-10T05:38:59.154Z,46.83
2023-04-10T05:42:11.646Z,46.47
2023-04-10T05:45:25.667Z,45.69
2023-04-10T05:48:47.505Z,45.12
2023-04-10T05:52:08.097Z,45.24
2023-04-10T05:55:24.928Z,44.68
2023-04-10T05:58:41.725Z,45.20
2023-04-10T06:01:58.252Z,44.54
2023-04-10T06:05:00.289Z,44.64
2023-04-10T06:08:02.253Z,44.93
2023-04-10T06:11:04.260Z,44.05
2023-04-10T06:14:06.811Z,43.93
2023-04-10T06:17:15.154Z,43.71
2023-04-10T06:20:17.218Z,43.21
2023-04-10T06:23:19.080Z,42.42
2023-04-10T06:26:21.034Z,41.85
2023-04-10T06:29:23.931Z,42.01
2023-04-10T06:32:25.942Z,39.69
2023-04-10T06:35:28.231Z,39.94
2023-04-10T06:38:30.776Z,39.63
2023-04-10T06:41:32.774Z,39.84
2023-04-10T06:44:54.553Z,40.15
2023-04-10T06:47:56.498Z,38.72
2023-04-10T06:51:00.973Z,38.96
2023-04-10T06:54:02.819Z,38.68
2023-04-10T06:57:04.928Z,37.75
2023-04-10T07:00:07.971Z,37.04
2023-04-10T07:03:09.884Z,36.91
2023-04-10T07:06:12.389Z,36.85
2023-04-10T07:09:14.368Z,37.28
2023-04-10T07:12:16.687Z,37.11
2023-04-10T07:15:18.590Z,35.82
2023-04-10T07:18:20.453Z,36.08
2023-04-10T07:21:22.342Z,36.67
2023-04-10T07:24:24.609Z,36.18
2023-04-10T07:27:26.691Z,36.32
2023-04-10T07:30:28.625Z,35.96
2023-04-10T07:33:30.649Z,34.61
2023-04-10T07:36:32.865Z,34.26
2023-04-10T07:39:34.804Z,33.99
2023-04-10T07:42:36.756Z,34.86
2023-04-10T07:45:38.654Z,34.15
2023-04-10T07:48:40.986Z,34.54
2023-04-10T07:51:42.849Z,33.72
2023-04-10T07:54:44.806Z,33.86
2023-04-10T07:57:46.730Z,33.50
2023-04-10T08:00:48.583Z,32.50
2023-04-10T08:03:50.660Z,31.39
2023-04-10T08:06:53.708Z,31.91
2023-04-10T08:09:55.585Z,32.46
2023-04-10T08:12:57.584Z,32.88
2023-04-10T08:16:00.064Z,32.71
2023-04-10T08:19:03.056Z,32.87
2023-04-10T08:22:04.856Z,32.30
2023-04-10T08:25:07.061Z,31.46
2023-04-10T08:28:08.950Z,31.98
2023-04-10T08:31:10.936Z,30.87
2023-04-10T08:34:12.904Z,31.49
2023-04-10T08:37:15.732Z,30.11
2023-04-10T08:40:17.721Z,30.77
2023-04-10T08:43:19.631Z,31.41
2023-04-10T08:46:24.277Z,30.99
2023-04-10T08:49:44.956Z,29.67
2023-04-10T08:52:47.127Z,30.63
2023-04-10T08:55:49.015Z,29.97
2023-04-10T08:58:52.266Z,29.76
2023-04-10T09:01:54.340Z,29.80
2023-04-10T09:05:00.631Z,30.10
2023-04-10T09:08:03.137Z,30.24
2023-04-10T09:11:05.821Z,29.42
2023-04-10T09:14:21.698Z,30.04
2023-04-10T09:17:24.639Z,30.67
2023-04-10T09:20:28.545Z,29.94
2023-04-10T09:23:30.673Z,29.60
2023-04-10T09:26:33.799Z,29.85
2023-04-10T09:29:43.188Z,28.97
2023-04-10T09:32:48.786Z,29.59
2023-04-10T09:35:51.337Z,29.25
2023-04-10T09:38:54.667Z,29.64
2023-04-10T09:41:56.551Z,29.44
2023-04-10T09:44:59.330Z,30.71
2023-04-10T09:48:06.844Z,30.47
2023-04-10T09:51:28.863Z,29.02
2023-04-10T09:54:38.194Z,29.07
2023-04-10T09:57:40.230Z,29.11
2023-04-10T10:00:51.417Z,29.82
2023-04-10T10:03:55.505Z,28.80
2023-04-10T10:06:57.787Z,29.24
2023-04-10T10:10:02.874Z,28.96
2023-04-10T10:13:05.255Z,28.57
2023-04-10T10:16:22.120Z,28.42
2023-04-10T10:20:02.287Z,29.28
2023-04-10T10:23:04.459Z,29.16
2023-04-10T10:26:06.973Z,29.09
2023-04-10T10:29:14.123Z,28.28
2023-04-10T10:32:18.129Z,28.38
2023-04-10T10:35:20.363Z,28.81
2023-04-10T10:38:22.737Z,29.06
2023-04-10T10:41:38.347Z,28.78
2023-04-10T10:44:51.137Z,29.03
2023-04-10T10:47:54.881Z,28.44
2023-04-10T10:50:59.163Z,28.73
2023-04-10T10:54:01.254Z,29.15
2023-04-10T10:57:06.593Z,28.59
2023-04-10T11:00:09.140Z,28.96
2023-04-10T11:03:11.239Z,29.04
2023-04-10T11:06:17.144Z,28.38
2023-04-10T11:09:48.673Z,28.14
2023-04-10T11:13:16.366Z,28.61
2023-04-10T11:16:22.648Z,28.14
2023-04-10T11:19:26.318Z,29.23
2023-04-10T11:22:28.990Z,28.48
2023-04-10T11:25:51.492Z,28.40
2023-04-10T11:28:54.665Z,27.79
2023-04-10T11:31:59.228Z,28.58
2023-04-10T11:35:03.625Z,28.85
2023-04-10T11:38:24.967Z,29.18
2023-04-10T11:41:35.467Z,28.62
2023-04-10T11:44:39.574Z,28.89
2023-04-10T11:47:41.764Z,28.70
2023-04-10T11:50:43.684Z,28.35
2023-04-10T11:53:46.381Z,28.59
2023-04-10T11:57:09.280Z,27.95
2023-04-10T12:00:11.582Z,28.57
2023-04-10T12:03:14.274Z,28.71
2023-04-10T12:06:16.941Z,28.86
2023-04-10T12:09:20.442Z,28.10
2023-04-10T12:12:36.275Z,28.74
2023-04-10T12:15:38.798Z,28.63
2023-04-10T12:18:41.285Z,28.86
2023-04-10T12:21:43.688Z,29.18
2023-04-10T12:24:47.427Z,28.72
2023-04-10T12:27:51.138Z,28.06
2023-04-10T12:30:53.647Z,28.30
2023-04-10T12:33:58.012Z,28.50
2023-04-10T12:36:59.938Z,28.51
2023-04-10T12:40:07.993Z,28.30
2023-04-10T12:43:09.851Z,28.61
2023-04-10T12:46:24.001Z,28.90
2023-04-10T12:49:26.098Z,28.76
2023-04-10T12:52:28.009Z,28.71
2023-04-10T12:55:30.012Z,29.03
2023-04-10T12:58:32.625Z,28.95
2023-04-10T13:01:34.677Z,28.06
2023-04-10T13:04:36.905Z,28.90
2023-04-10T13:07:39.503Z,29.19
2023-04-10T13:10:43.619Z,29.14
2023-04-10T13:13:46.377Z,29.34
2023-04-10T13:16:48.576Z,29.67
2023-04-10T13:19:51.374Z,29.83
2023-04-10T13:22:53.219Z,29.72
2023-04-10T13:25:56.883Z,30.02
2023-04-10T13:28:59.825Z,30.13
2023-04-10T13:32:05.323Z,29.88
2023-04-10T13:35:07.564Z,29.63
2023-04-10T13:38:11.668Z,30.11
2023-04-10T13:41:13.656Z,30.00
2023-04-10T13:44:15.445Z,29.75
2023-04-10T13:47:17.358Z,29.44
2023-04-10T13:50:19.271Z,29.83
2023-04-10T13:53:21.197Z,29.40
2023-04-10T13:56:23.067Z,29.75
2023-04-10T13:59:25.142Z,29.82
2023-04-10T14:02:27.166Z,29.60
2023-04-10T14:05:29.128Z,29.79
2023-04-10T14:08:30.989Z,29.94
2023-04-10T14:11:33.941Z,30.21
2023-04-10T14:14:35.938Z,30.40
2023-04-10T14:17:37.936Z,30.68
2023-04-10T14:20:42.381Z,30.34
2023-04-10T14:23:44.410Z,30.19
2023-04-10T14:26:46.356Z,30.36
2023-04-10T14:29:54.653Z,30.08
2023-04-10T14:32:57.545Z,30.30
2023-04-10T14:35:59.516Z,30.51
2023-04-10T14:39:01.440Z,30.61
2023-04-10T14:42:03.520Z,31.04
2023-04-10T14:45:06.324Z,31.14
2023-04-10T14:48:09.174Z,30.48
2023-04-10T14:51:12.946Z,30.85
2023-04-10T14:54:16.861Z,31.13
2023-04-10T14:57:18.851Z,30.62
2023-04-10T15:00:20.841Z,30.86
2023-04-10T15:03:25.195Z,31.01
2023-04-10T15:06:28.256Z,31.22
2023-04-10T15:09:30.230Z,31.02
2023-04-10T15:12:32.149Z,31.42
2023-04-10T15:15:34.107Z,31.31
2023-04-10T15:18:36.016Z,31.44
2023-04-10T15:21:37.968Z,31.32
2023-04-10T15:24:49.873Z,31.39
2023-04-10T15:27:54.682Z,31.67
2023-04-10T15:30:57.805Z,32.68
2023-04-10T15:33:59.818Z,32.91
2023-04-10T15:37:01.818Z,32.81
2023-04-10T15:40:04.769Z,32.48
2023-04-10T15:43:06.631Z,32.37
2023-04-10T15:46:08.766Z,32.40
2023-04-10T15:49:10.806Z,32.69
2023-04-10T15:52:12.754Z,32.70
2023-04-10T15:55:15.679Z,32.99
2023-04-10T15:58:17.662Z,33.10
2023-04-10T16:01:19.640Z,33.20
2023-04-10T16:04:21.952Z,33.55
2023-04-10T16:07:24.164Z,34.00
2023-04-10T16:10:26.153Z,34.32
2023-04-10T16:13:28.088Z,34.46
2023-04-10T16:16:30.762Z,34.72
2023-04-10T16:19:32.566Z,34.90
2023-04-10T16:22:34.650Z,35.19
2023-04-10T16:25:36.824Z,35.23
2023-04-10T16:28:38.873Z,35.16
2023-04-10T16:31:40.861Z,35.68
2023-04-10T16:34:42.767Z,35.92
2023-04-10T16:37:45.680Z,35.86
2023-04-10T16:40:47.512Z,36.23
2023-04-10T16:43:49.336Z,36.38
2023-04-10T16:46:51.462Z,36.74
2023-04-10T16:49:53.373Z,37.10
2023-04-10T16:52:55.371Z,36.86
2023-04-10T16:55:58.668Z,36.89
2023-04-10T16:59:00.775Z,37.32
2023-04-10T17:02:02.693Z,37.64
2023-04-10T17:05:04.799Z,37.41
2023-04-10T17:08:06.873Z,37.48
2023-04-10T17:11:08.979Z,38.19
2023-04-10T17:14:13.339Z,38.12
2023-04-10T17:17:15.576Z,38.33
2023-04-10T17:20:17.961Z,38.29
2023-04-10T17:23:19.849Z,38.67
2023-04-10T17:26:23.363Z,38.70
2023-04-10T17:29:25.971Z,39.03
2023-04-10T17:32:27.856Z,39.08
2023-04-10T17:35:29.783Z,39.10
2023-04-10T17:38:31.674Z,39.23
2023-04-10T17:41:33.552Z,39.70
2023-04-10T17:44:35.511Z,39.76
2023-04-10T17:47:37.549Z,39.83
2023-04-10T17:50:39.509Z,40.04
2023-04-10T17:53:41.499Z,40.15
2023-04-10T17:56:43.413Z,40.23
2023-04-10T17:59:45.512Z,40.54
2023-04-10T18:02:48.787Z,40.60
2023-04-10T18:05:51.061Z,40.92
2023-04-10T18:08:53.258Z,41.13
2023-04-10T18:11:55.964Z,41.24
2023-04-10T18:14:57.873Z,41.63
2023-04-10T18:17:59.823Z,41.87
2023-04-10T18:21:06.419Z,41.71
2023-04-10T18:24:12.259Z,42.08
2023-04-10T18:27:15.502Z,41.96
2023-04-10T18:30:18.096Z,42.20
2023-04-10T18:33:23.977Z,41.98
2023-04-10T18:36:25.852Z,42.03
2023-04-10T18:39:27.815Z,42.11
2023-04-10T18:42:30.082Z,42.07
2023-04-10T18:45:35.147Z,42.19
2023-04-10T18:48:44.132Z,42.16
2023-04-10T18:51:46.048Z,42.25
2023-04-10T18:54:47.872Z,42.41
2023-04-10T18:57:49.704Z,42.25
2023-04-10T19:00:53.200Z,42.57
2023-04-10T19:03:55.625Z,42.85
2023-04-10T19:06:57.889Z,42.79
2023-04-10T19:09:59.852Z,42.87
2023-04-10T19:13:01.952Z,42.80
2023-04-10T19:16:04.684Z,42.98
2023-04-10T19:19:06.616Z,43.06
2023-04-10T19:22:08.587Z,43.25
2023-04-10T19:25:10.556Z,43.37
2023-04-10T19:28:12.741Z,43.66
2023-04-10T19:31:14.771Z,43.61
2023-04-10T19:34:16.654Z,43.70
2023-04-10T19:37:20.712Z,43.66
2023-04-10T19:40:22.589Z,43.60
2023-04-10T19:43:24.848Z,44.04
2023-04-10T19:46:26.829Z,43.90
2023-04-10T19:49:32.953Z,43.97
2023-04-10T19:52:35.131Z,44.19
2023-04-10T19:55:37.084Z,44.32
2023-04-10T19:58:41.344Z,44.35
2023-04-10T20:01:43.772Z,44.37
2023-04-10T20:04:47.995Z,44.50
2023-04-10T20:07:50.682Z,44.36
2023-04-10T20:10:52.514Z,44.56
2023-04-10T20:13:54.436Z,44.69
2023-04-10T20:16:56.393Z,44.94
2023-04-10T20:19:58.296Z,44.92
2023-04-10T20:23:00.335Z,44.90
2023-04-10T20:26:02.273Z,45.06
2023-04-10T20:29:04.373Z,44.95
2023-04-10T20:32:08.296Z,45.11
2023-04-10T20:35:10.327Z,45.13
2023-04-10T20:38:12.206Z,45.28
2023-04-10T20:41:14.110Z,45.42
2023-04-10T20:44:16.013Z,45.71
2023-04-10T20:47:17.922Z,45.83
2023-04-10T20:50:19.932Z,46.00
2023-04-10T20:53:21.789Z,45.81
2023-04-10T20:56:32.800Z,46.01
2023-04-10T20:59:38.550Z,46.21
2023-04-10T21:02:40.642Z,46.36
2023-04-10T21:05:42.684Z,46.31
2023-04-10T21:08:44.536Z,46.19
2023-04-10T21:11:46.532Z,46.56
2023-04-10T21:14:48.357Z,46.50
2023-04-10T21:17:50.306Z,46.82
2023-04-10T21:20:52.196Z,46.75
2023-04-10T21:23:54.770Z,47.14
2023-04-10T21:26:56.715Z,47.27
2023-04-10T21:29:58.624Z,47.24
2023-04-10T21:33:00.630Z,47.43
2023-04-10T21:36:02.677Z,47.37
2023-04-10T21:39:09.267Z,47.94
2023-04-10T21:42:11.208Z,47.57
2023-04-10T21:45:15.722Z,47.62
2023-04-10T21:48:19.601Z,47.92
2023-04-10T21:51:22.142Z,48.02
2023-04-10T21:54:23.944Z,48.13
2023-04-10T21:57:25.880Z,48.25
2023-04-10T22:00:28.885Z,48.58
2023-04-10T22:03:31.153Z,48.53
2023-04-10T22:06:33.257Z,48.82
2023-04-10T22:09:35.198Z,48.94
2023-04-10T22:12:37.009Z,48.87
2023-04-10T22:15:38.907Z,49.17
2023-04-10T22:18:40.749Z,49.00
2023-04-10T22:21:42.817Z,49.24
2023-04-10T22:24:44.685Z,49.38
2023-04-10T22:27:46.687Z,49.32
2023-04-10T22:30:48.496Z,49.48
2023-04-10T22:33:51.502Z,49.75
2023-04-10T22:36:53.245Z,50.27
2023-04-10T22:39:57.824Z,50.07
2023-04-10T22:42:59.665Z,50.34
2023-04-10T22:46:01.588Z,50.57
2023-04-10T22:49:03.716Z,50.50
2023-04-10T22:52:05.803Z,50.73
2023-04-10T22:55:08.062Z,50.80
2023-04-10T22:58:10.566Z,51.11
2023-04-10T23:01:13.449Z,50.96
2023-04-10T23:04:15.355Z,51.52
2023-04-10T23:07:17.268Z,51.10
2023-04-10T23:10:19.915Z,51.15
2023-04-10T23:13:22.068Z,51.78
2023-04-10T23:16:24.020Z,51.84
2023-04-10T23:19:25.941Z,51.75
2023-04-10T23:22:31.255Z,51.93
2023-04-10T23:25:33.177Z,52.12
2023-04-10T23:28:35.029Z,52.32
2023-04-10T23:31:36.922Z,52.38
2023-04-10T23:34:38.978Z,52.34
2023-04-10T23:37:40.792Z,52.71
2023-04-10T23:40:42.750Z,52.60
2023-04-10T23:43:45.043Z,52.90
2023-04-10T23:46:47.054Z,53.19
2023-04-10T23:49:49.036Z,52.99
2023-04-10T23:52:51.672Z,53.55
2023-04-10T23:55:53.568Z,53.34
2023-04-10T23:58:56.494Z,53.57
